Time;durP1;ratioP1;P1;durP2;ratioP2;P2;SDS_P1;SDS_P2;PMS_P1;PMS_P2;Temp;Humidity;BMP_temperature;BMP_pressure;BME280_temperature;BME280_humidity;BME280_pressure;Samples;Min_cycle;Max_cycle;Signal;HPM_P1;HPM_P2
2022/03/02 00:01:31;;;;;;;13.57;9.17;;;;;;;2.29;100.00;100846.16;5018127;28;20204;-73
2022/03/02 00:03:57;;;;;;;21.43;11.90;;;;;;;2.55;100.00;100859.63;5026132;28;20697;-74
2022/03/02 00:06:24;;;;;;;17.87;11.47;;;;;;;2.35;100.00;100856.78;5032750;28;20219;-74
2022/03/02 00:08:51;;;;;;;16.43;11.07;;;;;;;2.41;100.00;100857.13;5033009;28;20212;-73
2022/03/02 00:11:18;;;;;;;20.43;12.33;;;;;;;2.38;100.00;100851.84;5022153;28;20204;-74
2022/03/02 00:13:45;;;;;;;19.30;12.57;;;;;;;2.28;100.00;100829.03;5014234;28;20205;-75
2022/03/02 00:16:14;;;;;;;17.90;12.60;;;;;;;2.46;100.00;100845.47;5012827;28;20197;-75
2022/03/02 00:18:41;;;;;;;20.93;12.30;;;;;;;2.26;100.00;100843.41;5017054;28;20200;-75
2022/03/02 00:21:08;;;;;;;21.07;12.70;;;;;;;2.28;100.00;100844.38;5032637;28;20230;-75
2022/03/02 00:23:35;;;;;;;21.13;12.17;;;;;;;1.82;100.00;100758.06;5021546;28;20196;-74
2022/03/02 00:26:02;;;;;;;26.20;14.87;;;;;;;2.35;100.00;100838.88;5012912;28;20226;-74
2022/03/02 00:28:28;;;;;;;24.67;15.17;;;;;;;2.24;100.00;100836.44;5014037;28;20216;-72
2022/03/02 00:30:56;;;;;;;44.97;27.07;;;;;;;2.09;100.00;100826.19;5019582;28;20196;-74
2022/03/02 00:33:24;;;;;;;38.63;23.27;;;;;;;2.13;100.00;100812.78;5022184;28;20259;-74
2022/03/02 00:35:51;;;;;;;27.13;16.43;;;;;;;2.10;100.00;100817.72;5013289;28;20201;-74
2022/03/02 00:38:17;;;;;;;27.33;16.57;;;;;;;2.03;100.00;100810.47;5031621;28;20200;-75
2022/03/02 00:40:45;;;;;;;37.87;20.50;;;;;;;2.14;100.00;100809.41;5029834;28;20195;-75
2022/03/02 00:43:12;;;;;;;41.20;25.83;;;;;;;1.98;100.00;100812.75;5021012;28;20679;-73
2022/03/02 00:45:39;;;;;;;25.10;14.80;;;;;;;1.80;100.00;100783.50;5020395;28;20227;-75
2022/03/02 00:48:08;;;;;;;33.07;18.63;;;;;;;1.85;100.00;100773.56;5031560;28;20220;-73
2022/03/02 00:50:37;;;;;;;26.10;13.57;;;;;;;2.02;100.00;100816.38;5025639;28;20231;-74
2022/03/02 00:53:07;;;;;;;46.80;24.30;;;;;;;2.14;100.00;100808.56;5017959;28;20196;-75
2022/03/02 00:55:35;;;;;;;85.50;46.07;;;;;;;2.12;100.00;100808.44;5031967;28;20210;-73
2022/03/02 00:58:02;;;;;;;61.40;33.07;;;;;;;1.98;100.00;100766.72;5030399;28;20200;-73
2022/03/02 01:00:29;;;;;;;56.53;29.53;;;;;;;2.22;100.00;100812.44;5017920;28;20196;-74
2022/03/02 01:02:56;;;;;;;24.83;13.67;;;;;;;2.11;100.00;100811.78;5025381;28;20249;-74
2022/03/02 01:05:23;;;;;;;24.83;15.53;;;;;;;2.04;100.00;100750.84;5031511;28;20195;-73
2022/03/02 01:07:52;;;;;;;20.23;11.83;;;;;;;2.24;100.00;100798.97;5027490;28;20189;-75
2022/03/02 01:10:19;;;;;;;21.63;14.10;;;;;;;2.20;100.00;100788.44;5012404;28;20197;-74
2022/03/02 01:12:46;;;;;;;31.17;18.27;;;;;;;2.42;100.00;100794.94;5013574;28;20193;-73
2022/03/02 01:15:14;;;;;;;17.67;11.63;;;;;;;2.36;100.00;100799.66;5031703;28;20203;-74
2022/03/02 01:17:40;;;;;;;24.33;13.80;;;;;;;2.02;100.00;100765.22;5030203;28;20574;-75
2022/03/02 01:20:11;;;;;;;21.73;13.63;;;;;;;2.13;100.00;100771.88;5013315;28;20199;-75
2022/03/02 01:22:38;;;;;;;27.43;12.97;;;;;;;2.41;100.00;100790.59;5012068;28;20205;-73
2022/03/02 01:25:09;;;;;;;24.90;14.27;;;;;;;2.43;100.00;100796.69;5011857;28;20204;-74
2022/03/02 01:27:36;;;;;;;31.40;17.73;;;;;;;2.42;100.00;100794.94;5013694;28;20235;-74
2022/03/02 01:30:04;;;;;;;27.77;16.80;;;;;;;2.48;100.00;100786.72;5027088;28;20200;-74
2022/03/02 01:32:31;;;;;;;23.40;14.63;;;;;;;2.49;100.00;100768.91;5017298;28;20196;-73
2022/03/02 01:34:58;;;;;;;25.07;13.90;;;;;;;2.37;100.00;100788.66;5022530;28;20196;-75
2022/03/02 01:37:24;;;;;;;30.40;19.50;;;;;;;2.43;100.00;100786.44;5031419;28;20204;-73
2022/03/02 01:39:51;;;;;;;34.60;21.23;;;;;;;2.37;100.00;100782.66;5012228;28;20204;-72
2022/03/02 01:42:20;;;;;;;23.27;13.53;;;;;;;2.42;100.00;100778.69;5023967;28;20197;-74
2022/03/02 01:44:47;;;;;;;18.83;10.90;;;;;;;2.31;100.00;100762.72;5011792;28;20675;-76
2022/03/02 01:47:13;;;;;;;26.70;15.10;;;;;;;2.50;100.00;100775.75;5027546;28;20231;-74
2022/03/02 01:49:40;;;;;;;25.63;14.40;;;;;;;2.35;100.00;100746.75;5031514;28;20195;-73
2022/03/02 01:52:07;;;;;;;26.17;16.00;;;;;;;2.17;100.00;100767.81;5034725;28;20188;-74
2022/03/02 01:54:34;;;;;;;27.63;14.97;;;;;;;2.19;100.00;100767.09;5033628;28;20196;-73
2022/03/02 01:57:01;;;;;;;22.33;13.80;;;;;;;1.98;100.00;100750.47;5034645;28;20199;-74
2022/03/02 01:59:29;;;;;;;25.30;14.37;;;;;;;2.23;100.00;100753.69;5019573;28;20201;-75
2022/03/02 02:01:56;;;;;;;20.23;13.67;;;;;;;2.18;100.00;100754.19;5014881;28;20632;-73
2022/03/02 02:04:23;;;;;;;39.73;20.40;;;;;;;2.26;100.00;100748.75;5015771;28;20199;-73
2022/03/02 02:06:50;;;;;;;31.07;17.80;;;;;;;2.05;100.00;100752.63;5015534;28;20252;-74
2022/03/02 02:09:17;;;;;;;29.60;16.63;;;;;;;2.07;100.00;100722.88;5029057;28;20227;-73
2022/03/02 02:11:44;;;;;;;28.37;16.63;;;;;;;2.17;100.00;100740.56;5035127;28;20200;-73
2022/03/02 02:14:10;;;;;;;98.97;45.10;;;;;;;2.27;100.00;100741.97;5018964;28;20200;-74
2022/03/02 02:16:39;;;;;;;29.20;17.17;;;;;;;2.22;100.00;100731.47;5015473;28;20204;-75
2022/03/02 02:19:06;;;;;;;36.23;18.50;;;;;;;2.07;100.00;100742.50;5026670;28;20192;-73
2022/03/02 02:21:35;;;;;;;25.17;15.13;;;;;;;2.20;100.00;100737.28;5019769;28;20205;-75
2022/03/02 02:24:02;;;;;;;26.97;15.73;;;;;;;2.21;100.00;100734.81;5023255;28;20667;-75
2022/03/02 02:26:29;;;;;;;28.50;16.70;;;;;;;2.05;100.00;100737.28;5034324;28;20273;-74
2022/03/02 02:28:56;;;;;;;26.73;15.53;;;;;;;1.97;100.00;100689.91;5023625;28;20208;-73
2022/03/02 02:31:23;;;;;;;32.57;18.13;;;;;;;2.14;100.00;100731.81;5022751;28;20694;-74
2022/03/02 02:33:51;;;;;;;25.87;15.50;;;;;;;2.11;100.00;100729.94;5033682;28;20667;-74
2022/03/02 02:36:19;;;;;;;21.63;13.73;;;;;;;1.98;100.00;100728.38;5034858;28;20224;-74
2022/03/02 02:38:48;;;;;;;32.60;19.47;;;;;;;2.16;100.00;100726.00;5034575;28;20192;-73
2022/03/02 02:41:15;;;;;;;30.60;17.00;;;;;;;2.26;100.00;100727.41;5023498;28;20196;-75
2022/03/02 02:43:43;;;;;;;26.87;16.37;;;;;;;2.29;100.00;100728.47;5028662;28;20192;-74
2022/03/02 02:46:11;;;;;;;26.70;15.87;;;;;;;2.16;100.00;100714.88;5033881;28;20309;-75
2022/03/02 02:48:38;;;;;;;26.40;15.00;;;;;;;2.31;100.00;100726.91;5034469;28;20192;-74
2022/03/02 02:51:05;;;;;;;14.73;7.83;;;;;;;2.20;100.00;100725.38;5032559;28;20191;-73
2022/03/02 02:53:32;;;;;;;26.10;16.03;;;;;;;2.11;100.00;100729.06;5034122;28;20200;-75
2022/03/02 02:56:01;;;;;;;27.77;16.17;;;;;;;2.26;100.00;100707.81;5033957;28;20196;-75
2022/03/02 02:58:28;;;;;;;26.13;15.93;;;;;;;2.29;100.00;100733.59;5034168;28;20200;-74
2022/03/02 03:00:55;;;;;;;27.00;16.60;;;;;;;2.19;100.00;100713.38;5025128;28;20192;-75
2022/03/02 03:03:22;;;;;;;31.30;17.93;;;;;;;2.16;100.00;100725.13;5014570;28;20193;-73
2022/03/02 03:05:51;;;;;;;30.43;17.13;;;;;;;2.06;100.00;100708.34;5014632;28;20280;-74
2022/03/02 03:08:18;;;;;;;27.97;16.87;;;;;;;2.40;100.00;100713.72;5014598;28;20240;-74
2022/03/02 03:10:47;;;;;;;48.33;24.40;;;;;;;2.49;100.00;100715.16;5020742;28;20732;-73
2022/03/02 03:13:15;;;;;;;53.27;25.30;;;;;;;2.27;100.00;100716.38;5015487;28;20200;-74
2022/03/02 03:15:43;;;;;;;33.87;18.67;;;;;;;2.20;100.00;100716.81;5021861;28;20200;-73
2022/03/02 03:18:10;;;;;;;28.53;16.93;;;;;;;2.39;100.00;100701.75;5033266;28;20207;-75
2022/03/02 03:20:37;;;;;;;29.03;15.77;;;;;;;2.45;100.00;100708.09;5030710;28;20254;-72
2022/03/02 03:23:05;;;;;;;34.80;21.27;;;;;;;2.48;100.00;100689.47;5034094;28;20192;-74
2022/03/02 03:25:32;;;;;;;29.73;17.17;;;;;;;2.12;100.00;100683.13;5033463;28;20233;-74
2022/03/02 03:28:00;;;;;;;43.70;22.97;;;;;;;2.15;100.00;100700.31;5033631;28;20229;-73
2022/03/02 03:30:28;;;;;;;30.47;17.80;;;;;;;2.30;100.00;100689.31;5025507;28;20189;-75
2022/03/02 03:32:55;;;;;;;27.37;14.97;;;;;;;2.38;100.00;100688.06;5013447;28;20201;-74
2022/03/02 03:35:24;;;;;;;34.13;20.17;;;;;;;2.31;100.00;100683.41;5018903;28;20199;-75
2022/03/02 03:37:51;;;;;;;34.77;20.13;;;;;;;2.06;100.00;100633.31;5033454;28;20200;-73
2022/03/02 03:40:19;;;;;;;34.00;21.33;;;;;;;2.45;100.00;100679.94;5016191;28;20197;-74
2022/03/02 03:42:46;;;;;;;31.17;19.03;;;;;;;2.42;100.00;100678.91;5020295;28;20664;-73
2022/03/02 03:45:14;;;;;;;30.67;17.20;;;;;;;2.32;100.00;100676.63;5015170;28;20197;-74
2022/03/02 03:47:42;;;;;;;26.37;15.43;;;;;;;2.31;100.00;100685.97;5013161;28;20598;-73
2022/03/02 03:50:10;;;;;;;41.97;23.43;;;;;;;2.36;100.00;100684.53;5017202;28;20185;-75
2022/03/02 03:52:37;;;;;;;38.57;21.93;;;;;;;2.12;100.00;100688.25;5014574;28;20229;-74
2022/03/02 03:55:06;;;;;;;35.80;21.07;;;;;;;2.27;100.00;100678.00;5013679;28;20192;-74
2022/03/02 03:57:33;;;;;;;30.80;15.30;;;;;;;2.36;100.00;100679.41;5013505;28;20201;-73
2022/03/02 03:59:59;;;;;;;29.77;16.93;;;;;;;2.21;100.00;100632.47;5027270;28;20207;-75
2022/03/02 04:02:27;;;;;;;30.73;18.07;;;;;;;2.08;100.00;100627.47;5021949;28;20192;-73
2022/03/02 04:04:55;;;;;;;34.07;18.57;;;;;;;2.53;100.00;100674.38;5026396;28;20196;-76
2022/03/02 04:07:22;;;;;;;30.20;17.67;;;;;;;2.21;100.00;100672.56;5027868;28;20221;-74
2022/03/02 04:09:49;;;;;;;28.80;15.97;;;;;;;2.23;100.00;100665.84;5015666;28;20204;-74
2022/03/02 04:12:17;;;;;;;39.45;24.35;;;;;;;2.55;100.00;100659.97;5020457;28;20459;-74
2022/03/02 04:14:44;;;;;;;36.67;20.53;;;;;;;2.62;100.00;100662.97;5014112;28;20201;-74
2022/03/02 04:17:11;;;;;;;44.33;23.63;;;;;;;2.72;100.00;100649.88;5016776;28;20189;-75
2022/03/02 04:19:39;;;;;;;29.17;18.43;;;;;;;2.47;100.00;100656.97;5026907;28;20203;-75
2022/03/02 04:22:07;;;;;;;44.15;28.38;;;;;;;2.62;100.00;100641.59;5015413;28;20449;-74
2022/03/02 04:24:34;;;;;;;28.87;19.67;;;;;;;2.49;100.00;100615.34;5013203;28;20274;-75
2022/03/02 04:27:01;;;;;;;26.93;16.00;;;;;;;2.65;100.00;100652.91;5019732;28;20393;-75
2022/03/02 04:29:28;;;;;;;32.27;18.63;;;;;;;2.34;100.00;100594.03;5031985;28;20636;-75
2022/03/02 04:31:54;;;;;;;28.17;15.30;;;;;;;2.56;100.00;100646.41;5015678;28;20200;-75
2022/03/02 04:34:21;;;;;;;34.37;20.63;;;;;;;2.66;100.00;100656.34;5023608;28;20200;-74
2022/03/02 04:36:48;;;;;;;29.20;17.70;;;;;;;2.70;100.00;100651.47;5031620;28;20721;-76
2022/03/02 04:39:16;;;;;;;29.23;18.43;;;;;;;2.66;100.00;100649.53;5031952;28;20199;-75
2022/03/02 04:41:43;;;;;;;33.13;18.13;;;;;;;2.58;100.00;100647.34;5020105;28;20209;-76
2022/03/02 04:44:10;;;;;;;33.40;18.10;;;;;;;2.46;100.00;100658.66;5024143;28;20226;-76
2022/03/02 04:46:37;;;;;;;25.63;15.50;;;;;;;2.38;100.00;100647.13;5021960;28;20236;-73
2022/03/02 04:49:12;;;;;;;22.50;13.37;;;;;;;2.09;100.00;100621.56;5021540;28;20184;-76
2022/03/02 04:51:39;;;;;;;34.53;19.93;;;;;;;2.24;100.00;100647.16;5017206;28;20624;-74
2022/03/02 04:54:08;;;;;;;37.13;20.10;;;;;;;2.29;100.00;100626.13;5023724;28;20666;-77
2022/03/02 04:56:36;;;;;;;36.83;19.23;;;;;;;2.34;100.00;100654.53;5012542;28;20608;-75
2022/03/02 04:59:03;;;;;;;34.27;21.23;;;;;;;2.23;100.00;100651.38;5018444;28;20196;-74
2022/03/02 05:01:30;;;;;;;23.93;13.37;;;;;;;2.27;100.00;100643.09;5013334;28;20638;-76
2022/03/02 05:03:57;;;;;;;31.63;20.30;;;;;;;2.05;100.00;100591.50;5011991;28;20219;-75
2022/03/02 05:06:24;;;;;;;43.17;24.73;;;;;;;2.15;100.00;100621.91;5016812;28;20200;-73
2022/03/02 05:08:51;;;;;;;29.10;17.33;;;;;;;2.32;100.00;100645.91;5022423;28;20231;-73
2022/03/02 05:11:18;;;;;;;36.00;22.97;;;;;;;2.24;100.00;100642.91;5029012;28;20218;-73
2022/03/02 05:13:46;;;;;;;38.93;22.70;;;;;;;2.15;100.00;100613.34;5020674;28;20588;-73
2022/03/02 05:16:13;;;;;;;28.90;18.30;;;;;;;2.38;100.00;100647.13;5025393;28;20193;-74
2022/03/02 05:18:44;;;;;;;27.40;15.90;;;;;;;2.29;100.00;100641.47;5018998;28;20211;-73
2022/03/02 05:21:12;;;;;;;29.87;17.57;;;;;;;2.27;100.00;100632.84;5031358;28;20756;-75
2022/03/02 05:23:39;;;;;;;30.63;18.17;;;;;;;2.21;100.00;100622.25;5031484;28;20282;-75
2022/03/02 05:26:06;;;;;;;35.13;20.53;;;;;;;2.28;100.00;100618.38;5027492;28;20196;-74
2022/03/02 05:28:33;;;;;;;25.33;16.10;;;;;;;2.21;100.00;100647.81;5018106;28;20725;-74
2022/03/02 05:31:01;;;;;;;30.83;20.27;;;;;;;2.20;100.00;100640.97;5020326;28;20653;-74
2022/03/02 05:33:28;;;;;;;34.33;21.47;;;;;;;2.59;100.00;100631.19;5011458;28;20232;-75
2022/03/02 05:35:54;;;;;;;161.90;67.47;;;;;;;2.54;100.00;100632.63;5011758;28;20284;-75
2022/03/02 05:38:21;;;;;;;69.03;32.50;;;;;;;2.52;100.00;100639.34;5016298;28;20196;-75
2022/03/02 05:40:48;;;;;;;89.57;41.13;;;;;;;2.67;100.00;100637.63;5031516;28;20223;-75
2022/03/02 05:43:15;;;;;;;47.03;24.87;;;;;;;2.47;100.00;100652.75;5031297;28;20199;-73
2022/03/02 05:45:42;;;;;;;26.30;16.73;;;;;;;2.55;100.00;100642.06;5021628;28;20643;-75
2022/03/02 05:48:10;;;;;;;25.43;13.43;;;;;;;2.45;100.00;100598.06;5023401;28;20234;-76
2022/03/02 05:50:37;;;;;;;37.33;22.13;;;;;;;2.66;100.00;100638.41;5024626;28;20204;-74
2022/03/02 05:53:04;;;;;;;32.83;18.63;;;;;;;2.58;100.00;100639.66;5030533;28;20188;-75
2022/03/02 05:55:31;;;;;;;26.37;14.57;;;;;;;2.66;100.00;100633.31;5031113;28;20675;-74
2022/03/02 05:57:58;;;;;;;28.20;18.10;;;;;;;2.91;100.00;100634.72;5030298;28;20188;-75
2022/03/02 06:00:25;;;;;;;29.17;17.23;;;;;;;2.74;100.00;100639.72;5012997;28;20585;-75
2022/03/02 06:02:51;;;;;;;25.57;15.73;;;;;;;2.72;100.00;100636.19;5011029;28;20192;-74
2022/03/02 06:05:20;;;;;;;27.87;17.57;;;;;;;2.84;100.00;100636.88;5011391;28;20193;-74
2022/03/02 06:07:46;;;;;;;26.20;15.80;;;;;;;2.88;100.00;100637.13;5011569;28;20233;-75
2022/03/02 06:10:16;;;;;;;32.63;18.63;;;;;;;2.76;100.00;100631.31;5020244;28;20201;-74
2022/03/02 06:12:43;;;;;;;34.83;20.87;;;;;;;2.83;100.00;100635.97;5029649;28;20189;-75
2022/03/02 06:15:13;;;;;;;37.60;23.23;;;;;;;2.71;100.00;100632.75;5018276;28;20199;-75
2022/03/02 06:17:41;;;;;;;34.07;19.03;;;;;;;2.64;100.00;100630.63;5017189;28;20204;-76
2022/03/02 06:20:10;;;;;;;40.90;22.83;;;;;;;2.78;100.00;100629.72;5027629;28;20196;-74
2022/03/02 06:22:38;;;;;;;37.30;20.10;;;;;;;2.85;100.00;100620.72;5031530;28;20196;-75
2022/03/02 06:25:07;;;;;;;39.57;22.87;;;;;;;3.02;100.00;100627.63;5031134;28;20683;-75
2022/03/02 06:27:34;;;;;;;54.70;32.93;;;;;;;3.15;100.00;100612.09;5016392;28;20312;-75
2022/03/02 06:30:01;;;;;;;33.63;18.37;;;;;;;3.05;100.00;100622.66;5026411;28;20679;-75
2022/03/02 06:32:29;;;;;;;50.13;26.63;;;;;;;2.90;100.00;100580.84;5031201;28;20204;-73
2022/03/02 06:34:58;;;;;;;75.93;47.20;;;;;;;2.70;100.00;100563.56;5032388;28;20275;-76
2022/03/02 06:37:26;;;;;;;53.47;30.13;;;;;;;3.35;100.00;100624.25;5034598;28;20196;-75
2022/03/02 06:39:55;;;;;;;42.57;22.73;;;;;;;3.46;100.00;100627.41;5020651;28;20197;-73
2022/03/02 06:42:25;;;;;;;46.50;25.23;;;;;;;3.43;100.00;100624.66;5014703;28;20208;-74
2022/03/02 06:44:56;;;;;;;41.23;23.63;;;;;;;3.49;100.00;100627.56;5017787;28;20203;-74
2022/03/02 06:47:27;;;;;;;46.07;22.37;;;;;;;3.55;100.00;100630.41;5034286;28;20235;-74
2022/03/02 06:50:05;;;;;;;43.23;22.13;;;;;;;3.65;100.00;100618.94;5034567;28;20196;-75
2022/03/02 06:52:37;;;;;;;36.07;19.33;;;;;;;3.62;100.00;100632.50;5034232;28;20211;-75
2022/03/02 06:55:09;;;;;;;46.77;23.57;;;;;;;3.55;100.00;100637.22;5034455;28;20199;-74
2022/03/02 06:57:36;;;;;;;34.37;20.77;;;;;;;3.56;100.00;100605.66;5034582;28;20212;-73
2022/03/02 07:00:08;;;;;;;43.37;25.07;;;;;;;3.83;100.00;100614.75;5034445;28;20196;-74
2022/03/02 07:02:39;;;;;;;44.63;22.47;;;;;;;3.65;100.00;100617.25;5033364;28;20192;-73
2022/03/02 07:05:08;;;;;;;46.77;26.10;;;;;;;3.88;100.00;100634.72;5034240;28;20203;-73
2022/03/02 07:07:35;;;;;;;40.30;23.20;;;;;;;3.74;100.00;100606.59;5034284;28;20228;-73
2022/03/02 07:10:02;;;;;;;33.03;19.87;;;;;;;3.79;100.00;100628.22;5034007;28;20667;-74
2022/03/02 07:12:30;;;;;;;43.00;25.83;;;;;;;3.85;100.00;100613.16;5034365;28;20200;-72
2022/03/02 07:14:58;;;;;;;26.67;15.20;;;;;;;3.85;100.00;100625.97;5034100;28;20196;-74
2022/03/02 07:17:26;;;;;;;30.20;18.23;;;;;;;3.63;100.00;100628.25;5034122;28;20654;-73
2022/03/02 07:19:53;;;;;;;86.57;42.90;;;;;;;3.57;100.00;100592.06;5034090;28;20200;-73
2022/03/02 07:22:22;;;;;;;30.47;17.43;;;;;;;3.33;100.00;100638.69;5033748;28;20203;-74
2022/03/02 07:24:53;;;;;;;63.03;34.27;;;;;;;3.35;100.00;100637.06;5033737;28;20192;-72
2022/03/02 07:27:21;;;;;;;35.23;20.37;;;;;;;3.59;100.00;100637.47;5033811;28;20227;-74
2022/03/02 07:29:51;;;;;;;38.97;20.17;;;;;;;3.70;100.00;100636.34;5033862;28;20193;-74
2022/03/02 07:32:23;;;;;;;31.23;18.57;;;;;;;3.79;100.00;100630.78;5032796;28;20215;-75
2022/03/02 07:34:56;;;;;;;14.50;9.93;;;;;;;3.67;100.00;100625.03;5033887;28;20196;-72
2022/03/02 07:37:24;;;;;;;27.47;16.53;;;;;;;3.48;100.00;100624.09;5033798;28;20196;-73
2022/03/02 07:39:51;;;;;;;30.23;17.83;;;;;;;3.57;100.00;100613.41;5033401;28;20204;-71
2022/03/02 07:42:19;;;;;;;33.27;19.10;;;;;;;3.84;100.00;100614.84;5033285;28;20203;-73
2022/03/02 07:44:47;;;;;;;24.93;13.73;;;;;;;3.93;100.00;100627.22;5033727;28;20203;-74
2022/03/02 07:47:16;;;;;;;25.70;14.93;;;;;;;3.86;100.00;100585.00;5032603;28;20232;-73
2022/03/02 07:49:43;;;;;;;27.60;16.53;;;;;;;4.07;100.00;100630.50;5033187;28;20223;-73
2022/03/02 07:52:11;;;;;;;11.07;7.00;;;;;;;3.85;100.00;100623.41;5033445;28;20203;-72
2022/03/02 07:54:39;;;;;;;36.70;19.33;;;;;;;4.09;100.00;100627.19;5033431;28;20203;-74
2022/03/02 07:57:08;;;;;;;25.30;13.43;;;;;;;3.67;100.00;100573.78;5033796;28;20583;-73
2022/03/02 07:59:37;;;;;;;51.97;27.33;;;;;;;4.04;100.00;100618.38;5033406;28;20200;-74
2022/03/02 08:02:05;;;;;;;30.33;16.73;;;;;;;4.21;100.00;100617.50;5032432;28;20566;-74
2022/03/02 08:04:35;;;;;;;27.13;15.53;;;;;;;4.37;100.00;100614.88;5033132;28;20207;-75
2022/03/02 08:07:02;;;;;;;31.40;18.97;;;;;;;4.60;100.00;100623.69;5033172;28;20192;-72
2022/03/02 08:09:31;;;;;;;25.40;15.23;;;;;;;4.96;100.00;100619.34;5033156;28;20224;-76
2022/03/02 08:12:00;;;;;;;41.47;27.90;;;;;;;4.70;100.00;100625.00;5033182;28;20223;-75
2022/03/02 08:14:27;;;;;;;20.07;12.50;;;;;;;4.94;100.00;100633.84;5033058;28;20208;-77
2022/03/02 08:16:54;;;;;;;28.43;18.47;;;;;;;5.13;100.00;100613.31;5032819;28;20203;-75
2022/03/02 08:19:22;;;;;;;26.10;14.27;;;;;;;5.26;100.00;100630.16;5033480;28;20678;-75
2022/03/02 08:21:56;;;;;;;22.17;13.97;;;;;;;5.06;100.00;100610.41;5032647;28;20199;-75
2022/03/02 08:24:26;;;;;;;34.27;20.27;;;;;;;5.28;100.00;100619.13;5032760;28;20200;-72
2022/03/02 08:26:57;;;;;;;26.53;16.73;;;;;;;5.34;100.00;100627.13;5032536;28;20701;-72
2022/03/02 08:29:27;;;;;;;33.93;18.47;;;;;;;5.27;100.00;100626.78;5032771;28;20230;-74
2022/03/02 08:31:58;;;;;;;32.40;14.90;;;;;;;5.10;100.00;100622.59;5032343;28;20188;-73
2022/03/02 08:34:26;;;;;;;34.27;16.50;;;;;;;4.85;100.00;100615.44;5032047;28;20254;-74
2022/03/02 08:36:55;;;;;;;24.17;14.23;;;;;;;4.91;100.00;100620.84;5032495;28;20196;-73
2022/03/02 08:39:23;;;;;;;21.03;12.87;;;;;;;4.77;100.00;100627.03;5032566;28;20196;-73
2022/03/02 08:41:50;;;;;;;26.67;16.27;;;;;;;5.06;100.00;100612.97;5032345;28;20204;-73
2022/03/02 08:44:17;;;;;;;25.23;14.10;;;;;;;5.28;100.00;100606.25;5032483;28;20207;-73
2022/03/02 08:46:46;;;;;;;20.03;11.67;;;;;;;5.34;100.00;100606.56;5032194;28;20285;-73
2022/03/02 08:49:13;;;;;;;18.97;12.13;;;;;;;5.18;100.00;100604.09;5032001;28;20338;-74
2022/03/02 08:51:41;;;;;;;18.30;10.07;;;;;;;4.91;100.00;100611.47;5032111;28;20236;-73
2022/03/02 08:54:12;;;;;;;13.03;9.20;;;;;;;5.08;100.00;100609.66;5032054;28;20212;-72
2022/03/02 08:56:40;;;;;;;11.97;8.90;;;;;;;5.24;100.00;100611.22;5031998;28;20586;-73
2022/03/02 08:59:08;;;;;;;23.70;13.33;;;;;;;5.45;100.00;100614.75;5031418;28;20188;-74
2022/03/02 09:01:40;;;;;;;20.60;13.17;;;;;;;5.21;100.00;100606.81;5032284;28;20222;-73
2022/03/02 09:04:07;;;;;;;27.47;16.20;;;;;;;5.56;100.00;100584.34;5031435;28;20196;-75
2022/03/02 09:06:35;;;;;;;18.20;10.20;;;;;;;5.68;100.00;100582.28;5031883;28;20694;-75
2022/03/02 09:09:02;;;;;;;16.80;10.70;;;;;;;5.53;100.00;100599.66;5032079;28;20343;-75
2022/03/02 09:11:30;;;;;;;21.80;13.07;;;;;;;5.71;100.00;100592.69;5031898;28;20614;-75
2022/03/02 09:13:57;;;;;;;17.37;11.90;;;;;;;5.82;100.00;100599.16;5032097;28;20593;-75
2022/03/02 09:16:24;;;;;;;22.27;12.20;;;;;;;5.90;100.00;100603.88;5031908;28;20192;-75
2022/03/02 09:18:51;;;;;;;15.77;9.50;;;;;;;5.76;100.00;100599.81;5031757;28;20203;-74
2022/03/02 09:21:21;;;;;;;19.33;10.17;;;;;;;5.73;100.00;100598.78;5031616;28;20199;-74
2022/03/02 09:23:48;;;;;;;21.43;11.27;;;;;;;5.52;100.00;100542.19;5031957;28;20220;-74
2022/03/02 09:26:17;;;;;;;15.20;9.13;;;;;;;5.85;100.00;100600.19;5031565;28;20200;-74
2022/03/02 09:28:48;;;;;;;11.93;8.87;;;;;;;5.65;100.00;100592.44;5031510;28;20228;-75
2022/03/02 09:31:16;;;;;;;14.83;9.13;;;;;;;5.63;100.00;100586.38;5031801;28;20196;-75
2022/03/02 09:33:47;;;;;;;15.87;9.33;;;;;;;6.08;100.00;100583.16;5031210;28;20196;-76
2022/03/02 09:36:14;;;;;;;30.97;15.33;;;;;;;6.22;100.00;100579.44;5031875;28;20200;-74
2022/03/02 09:38:41;;;;;;;18.73;10.53;;;;;;;5.71;100.00;100582.41;5031408;28;20567;-76
2022/03/02 09:41:10;;;;;;;29.13;19.07;;;;;;;5.87;100.00;100566.84;5031741;28;20192;-75
2022/03/02 09:43:38;;;;;;;10.50;8.03;;;;;;;5.59;100.00;100563.88;5031839;28;20200;-74
2022/03/02 09:46:10;;;;;;;17.00;11.10;;;;;;;5.40;100.00;100534.81;5031328;28;20212;-76
2022/03/02 09:48:41;;;;;;;17.03;11.60;;;;;;;6.17;100.00;100573.22;5031593;28;20231;-74
2022/03/02 09:51:09;;;;;;;16.10;10.40;;;;;;;6.11;100.00;100539.50;5031632;28;20593;-74
2022/03/02 09:53:37;;;;;;;16.40;9.30;;;;;;;6.03;100.00;100566.63;5031454;28;20250;-75
2022/03/02 09:56:06;;;;;;;22.93;12.77;;;;;;;6.53;100.00;100565.22;5031691;28;20204;-72
2022/03/02 09:58:38;;;;;;;24.10;12.63;;;;;;;6.67;100.00;100561.47;5031382;28;20200;-73
2022/03/02 10:01:15;;;;;;;13.33;7.97;;;;;;;6.73;100.00;100557.41;5032138;28;20196;-75
2022/03/02 10:03:50;;;;;;;14.93;8.87;;;;;;;7.03;100.00;100543.91;5030911;28;20224;-72
2022/03/02 10:06:18;;;;;;;15.93;9.07;;;;;;;6.62;100.00;100539.78;5031554;28;20199;-72
2022/03/02 10:08:48;;;;;;;17.07;12.57;;;;;;;6.90;100.00;100550.31;5031243;28;20227;-72
2022/03/02 10:11:19;;;;;;;13.57;7.30;;;;;;;7.14;100.00;100545.16;5034750;28;20686;-74
2022/03/02 10:13:46;;;;;;;15.17;8.07;;;;;;;6.82;100.00;100528.50;5035369;28;20196;-72
2022/03/02 10:16:21;;;;;;;10.20;8.17;;;;;;;6.34;100.00;100525.88;5035194;28;20203;-72
2022/03/02 10:18:55;;;;;;;14.00;7.70;;;;;;;6.67;100.00;100530.53;5034844;28;20199;-70
2022/03/02 10:21:29;;;;;;;12.10;8.33;;;;;;;6.73;100.00;100526.50;5034906;28;20206;-71
2022/03/02 10:23:59;;;;;;;13.70;6.70;;;;;;;6.33;100.00;100512.91;5035068;28;20207;-71
2022/03/02 10:26:27;;;;;;;12.23;8.30;;;;;;;6.76;100.00;100524.03;5034614;28;20204;-73
2022/03/02 10:29:00;;;;;;;15.33;8.47;;;;;;;6.08;100.00;100472.47;5035091;28;20228;-74
2022/03/02 10:31:42;;;;;;;16.70;11.67;;;;;;;6.77;100.00;100506.88;5035204;28;20199;-71
2022/03/02 10:34:32;;;;;;;14.20;9.73;;;;;;;6.76;100.00;100484.50;5034229;28;20211;-73
2022/03/02 10:37:07;;;;;;;10.07;7.37;;;;;;;6.77;100.00;100475.94;5034933;28;20196;-73
2022/03/02 10:39:49;;;;;;;15.33;10.60;;;;;;;7.24;100.00;100500.84;5034893;28;20203;-72
2022/03/02 10:42:22;;;;;;;14.10;10.40;;;;;;;7.63;100.00;100491.00;5034765;28;20242;-72
2022/03/02 10:44:59;;;;;;;14.30;9.90;;;;;;;7.41;100.00;100489.41;5034802;28;20192;-72
2022/03/02 10:47:29;;;;;;;15.07;10.07;;;;;;;6.96;100.00;100488.66;5034328;28;20318;-71
2022/03/02 10:49:58;;;;;;;10.37;8.50;;;;;;;7.59;100.00;100481.41;5034208;28;20232;-71
2022/03/02 10:52:28;;;;;;;12.07;8.30;;;;;;;7.81;100.00;100481.28;5034612;28;20199;-73
2022/03/02 10:54:57;;;;;;;14.17;10.73;;;;;;;7.70;100.00;100462.88;5035181;28;20651;-72
2022/03/02 10:57:26;;;;;;;11.53;7.93;;;;;;;7.77;100.00;100475.13;5033836;28;20238;-74
2022/03/02 10:59:55;;;;;;;27.50;16.50;;;;;;;7.39;100.00;100466.13;5033943;28;20200;-74
2022/03/02 11:02:23;;;;;;;17.07;10.80;;;;;;;7.58;100.00;100465.03;5034087;28;20203;-73
2022/03/02 11:04:54;;;;;;;10.93;7.17;;;;;;;7.09;100.00;100454.78;5034258;28;20235;-73
2022/03/02 11:07:21;;;;;;;32.40;19.63;;;;;;;6.92;100.00;100440.41;5034460;28;20201;-73
2022/03/02 11:09:51;;;;;;;22.13;14.53;;;;;;;7.27;100.00;100454.53;5034409;28;20263;-73
2022/03/02 11:12:20;;;;;;;38.83;20.80;;;;;;;6.93;100.00;100452.47;5034314;28;20200;-74
2022/03/02 11:14:58;;;;;;;55.70;29.63;;;;;;;6.77;100.00;100390.91;5033963;28;20250;-74